Time;durP1;ratioP1;P1;durP2;ratioP2;P2;SDS_P1;SDS_P2;PMS_P1;PMS_P2;Temp;Humidity;BMP_temperature;BMP_pressure;BME280_temperature;BME280_humidity;BME280_pressure;Samples;Min_cycle;Max_cycle;Signal;HPM_P1;HPM_P2
2023/12/01 00:02:11;;;;;;;4.57;4.03;;;16.30;43.40;;;;;;5001611;28;20197;-80
2023/12/01 00:04:38;;;;;;;4.63;4.15;;;16.30;43.30;;;;;;5017231;28;20208;-80
2023/12/01 00:07:05;;;;;;;4.55;4.15;;;16.30;43.30;;;;;;5016689;28;20236;-80
2023/12/01 00:09:33;;;;;;;4.50;4.10;;;16.30;43.30;;;;;;5016742;28;20624;-81
2023/12/01 00:11:59;;;;;;;4.57;4.18;;;16.30;43.30;;;;;;5016491;28;20726;-80
2023/12/01 00:14:28;;;;;;;4.80;4.25;;;16.30;43.40;;;;;;5016310;28;20217;-80
2023/12/01 00:16:55;;;;;;;4.72;4.28;;;16.30;43.40;;;;;;5016441;28;20204;-80
2023/12/01 00:19:22;;;;;;;4.60;4.20;;;16.30;43.30;;;;;;5004104;28;20280;-80
2023/12/01 00:21:50;;;;;;;4.60;4.25;;;16.30;43.30;;;;;;5017274;28;20287;-80
2023/12/01 00:24:17;;;;;;;4.80;4.40;;;16.30;43.30;;;;;;5000578;28;20217;-80
2023/12/01 00:26:45;;;;;;;4.63;4.20;;;16.30;43.30;;;;;;5017900;28;20544;-80
2023/12/01 00:29:12;;;;;;;4.93;4.53;;;16.30;43.40;;;;;;5017034;28;20541;-80
2023/12/01 00:31:41;;;;;;;4.63;4.22;;;16.30;43.30;;;;;;5018677;28;20288;-80
2023/12/01 00:34:08;;;;;;;4.60;4.20;;;16.30;43.40;;;;;;5018446;28;20274;-80
2023/12/01 00:36:36;;;;;;;4.38;3.97;;;16.30;43.30;;;;;;5018523;28;20243;-80
2023/12/01 00:39:03;;;;;;;4.82;4.40;;;16.30;43.40;;;;;;5018778;28;20370;-80
2023/12/01 00:41:30;;;;;;;4.15;3.85;;;16.30;43.40;;;;;;5017778;28;20197;-80
2023/12/01 00:43:57;;;;;;;5.22;4.60;;;16.30;43.30;;;;;;5018289;28;20217;-80
2023/12/01 00:46:24;;;;;;;4.63;4.22;;;16.30;43.40;;;;;;5017883;28;20635;-80
2023/12/01 00:48:53;;;;;;;4.80;4.40;;;16.30;43.40;;;;;;5018152;28;20303;-80
2023/12/01 00:51:20;;;;;;;4.05;3.70;;;16.30;43.40;;;;;;5017725;28;20216;-80
2023/12/01 00:53:47;;;;;;;4.22;3.92;;;16.30;43.40;;;;;;5017055;28;20217;-80
2023/12/01 00:56:14;;;;;;;4.50;4.10;;;16.20;43.30;;;;;;5017667;28;20634;-80
2023/12/01 00:58:42;;;;;;;4.07;3.70;;;16.30;43.40;;;;;;5017754;28;20201;-80
2023/12/01 01:01:09;;;;;;;4.65;4.25;;;16.30;43.40;;;;;;5018335;28;20193;-80
2023/12/01 01:03:36;;;;;;;4.30;4.00;;;16.30;43.40;;;;;;5018012;28;20248;-80
2023/12/01 01:06:06;;;;;;;4.28;3.83;;;16.30;43.40;;;;;;5018176;28;20586;-80
2023/12/01 01:08:33;;;;;;;4.43;4.07;;;16.30;43.50;;;;;;5018467;28;20204;-80
2023/12/01 01:11:00;;;;;;;4.65;4.25;;;16.30;43.50;;;;;;5018144;28;20225;-80
2023/12/01 01:13:27;;;;;;;4.15;3.85;;;16.30;43.60;;;;;;5014971;28;20212;-78
2023/12/01 01:15:54;;;;;;;4.65;4.25;;;16.30;43.50;;;;;;5014742;28;20204;-78
2023/12/01 01:18:22;;;;;;;4.10;3.80;;;16.30;43.50;;;;;;5000609;28;20209;-80
2023/12/01 01:20:49;;;;;;;4.40;4.10;;;16.30;43.50;;;;;;5015759;28;20647;-81
2023/12/01 01:23:17;;;;;;;4.60;4.20;;;16.30;43.50;;;;;;5016558;28;20555;-81
2023/12/01 01:25:44;;;;;;;4.35;3.95;;;16.30;43.60;;;;;;5016269;28;20283;-81
2023/12/01 01:28:11;;;;;;;4.70;4.30;;;16.30;43.50;;;;;;5017190;28;20201;-81
2023/12/01 01:30:39;;;;;;;4.40;4.05;;;16.30;43.50;;;;;;5017103;28;20307;-81
2023/12/01 01:33:06;;;;;;;4.65;4.25;;;16.30;43.50;;;;;;5015317;28;20641;-78
2023/12/01 01:35:33;;;;;;;4.50;4.10;;;16.30;43.50;;;;;;5014195;28;20208;-78
2023/12/01 01:38:00;;;;;;;4.63;4.18;;;16.30;43.50;;;;;;5013568;28;20220;-78
2023/12/01 01:40:29;;;;;;;4.15;3.85;;;16.30;43.50;;;;;;5014250;28;20196;-78
2023/12/01 01:42:56;;;;;;;4.70;4.30;;;16.20;43.50;;;;;;5013985;28;20244;-78
2023/12/01 01:45:23;;;;;;;3.85;3.55;;;16.30;43.60;;;;;;5013838;28;20215;-78
2023/12/01 01:47:52;;;;;;;4.80;4.30;;;16.30;43.50;;;;;;5013838;28;20212;-78
2023/12/01 01:50:22;;;;;;;4.68;4.20;;;16.20;43.50;;;;;;5014043;28;20753;-78
2023/12/01 01:52:50;;;;;;;4.47;4.07;;;16.30;43.50;;;;;;5013776;28;20229;-78
2023/12/01 01:55:17;;;;;;;4.85;4.35;;;16.30;43.60;;;;;;5013940;28;20203;-80
2023/12/01 01:57:46;;;;;;;4.57;4.18;;;16.30;43.60;;;;;;5013680;28;20295;-79
2023/12/01 02:00:16;;;;;;;4.30;3.90;;;16.30;43.60;;;;;;5013969;28;20207;-79
2023/12/01 02:02:44;;;;;;;5.25;4.75;;;16.30;43.60;;;;;;5013321;28;20315;-79
2023/12/01 02:05:14;;;;;;;4.55;4.18;;;16.30;43.60;;;;;;5013569;28;20656;-79
2023/12/01 02:07:41;;;;;;;5.13;4.63;;;16.30;43.60;;;;;;5013413;28;20673;-79
2023/12/01 02:10:15;;;;;;;4.50;4.10;;;16.30;43.60;;;;;;5013436;28;20223;-78
2023/12/01 02:12:44;;;;;;;4.95;4.55;;;16.20;43.60;;;;;;5013312;28;20765;-79
2023/12/01 02:15:13;;;;;;;4.82;4.32;;;16.30;43.70;;;;;;5013604;28;20201;-79
2023/12/01 02:17:40;;;;;;;4.93;4.43;;;16.30;43.60;;;;;;5014006;28;20205;-79
2023/12/01 02:20:14;;;;;;;5.57;4.45;;;16.30;43.60;;;;;;5014344;28;20228;-79
2023/12/01 02:22:54;;;;;;;4.63;4.22;;;16.30;43.50;;;;;;5014560;28;20226;-79
2023/12/01 02:25:22;;;;;;;4.90;4.50;;;16.30;43.50;;;;;;5014252;28;20615;-79
2023/12/01 02:27:48;;;;;;;5.00;4.57;;;16.30;43.60;;;;;;5013906;28;20629;-79
2023/12/01 02:30:17;;;;;;;4.70;4.30;;;16.30;43.50;;;;;;5013328;28;20316;-79
2023/12/01 02:32:43;;;;;;;5.45;4.95;;;16.30;43.60;;;;;;5013238;28;20284;-79
2023/12/01 02:35:11;;;;;;;5.53;5.03;;;16.30;43.60;;;;;;5013495;28;20208;-79
2023/12/01 02:37:38;;;;;;;5.80;4.47;;;16.30;43.60;;;;;;5013548;28;20723;-81
2023/12/01 02:40:15;;;;;;;4.78;4.38;;;16.30;43.60;;;;;;5013409;28;20224;-80
2023/12/01 02:42:48;;;;;;;4.88;4.47;;;16.30;43.60;;;;;;5015635;28;20718;-81
2023/12/01 02:45:15;;;;;;;4.47;4.07;;;16.30;43.60;;;;;;5016396;28;20200;-80
2023/12/01 02:47:45;;;;;;;4.78;4.38;;;16.30;43.60;;;;;;5015941;28;20659;-81
2023/12/01 02:50:12;;;;;;;4.50;4.10;;;16.30;44.10;;;;;;5015403;28;20567;-81
2023/12/01 02:52:41;;;;;;;4.57;4.07;;;16.30;43.50;;;;;;5015182;28;20319;-81
2023/12/01 02:55:10;;;;;;;4.45;4.05;;;16.30;43.50;;;;;;5015785;28;20200;-81
2023/12/01 02:57:39;;;;;;;4.40;4.00;;;16.30;43.50;;;;;;5014132;28;20295;-78
2023/12/01 03:00:10;;;;;;;4.57;4.18;;;16.30;43.40;;;;;;5015861;28;20675;-80
2023/12/01 03:02:37;;;;;;;4.97;4.57;;;16.30;43.50;;;;;;5015408;28;20220;-80
2023/12/01 03:05:06;;;;;;;4.68;4.28;;;16.30;43.40;;;;;;5015385;28;20251;-81
2023/12/01 03:07:33;;;;;;;5.13;4.68;;;16.30;43.40;;;;;;5018509;28;20205;-80
2023/12/01 03:10:00;;;;;;;4.32;3.95;;;16.30;43.40;;;;;;5027001;28;20251;-80
2023/12/01 03:12:28;;;;;;;4.93;4.53;;;16.30;43.40;;;;;;5026086;28;20200;-80
2023/12/01 03:14:56;;;;;;;4.82;4.40;;;16.30;43.30;;;;;;5024164;28;20200;-81
2023/12/01 03:17:23;;;;;;;4.55;4.15;;;16.30;43.30;;;;;;5023167;28;20204;-81
2023/12/01 03:19:51;;;;;;;5.30;4.80;;;16.40;43.30;;;;;;5021602;28;20205;-80
2023/12/01 03:22:18;;;;;;;4.60;4.20;;;16.30;43.20;;;;;;5014073;28;20204;-81
2023/12/01 03:24:47;;;;;;;4.97;4.47;;;16.40;43.20;;;;;;5013887;28;20229;-81
2023/12/01 03:27:14;;;;;;;4.28;3.90;;;16.30;43.10;;;;;;5014126;28;20204;-81
2023/12/01 03:29:42;;;;;;;4.88;4.47;;;16.30;43.20;;;;;;5014720;28;20219;-80
2023/12/01 03:32:09;;;;;;;4.72;4.32;;;16.30;43.20;;;;;;5014162;28;20227;-81
2023/12/01 03:34:37;;;;;;;4.90;4.50;;;16.40;43.20;;;;;;5014468;28;20675;-80
2023/12/01 03:37:04;;;;;;;4.75;4.35;;;16.30;43.20;;;;;;4998619;28;20192;-81
2023/12/01 03:39:32;;;;;;;4.50;4.10;;;16.30;43.20;;;;;;5014240;28;20201;-81
2023/12/01 03:41:59;;;;;;;5.00;4.60;;;16.30;43.20;;;;;;5014422;28;20204;-81
2023/12/01 03:44:26;;;;;;;4.82;4.38;;;16.30;43.20;;;;;;5014070;28;20224;-81
2023/12/01 03:46:55;;;;;;;4.63;4.22;;;16.30;43.10;;;;;;5014016;28;20201;-81
2023/12/01 03:49:22;;;;;;;4.60;4.20;;;16.30;43.20;;;;;;5014378;28;20545;-81
2023/12/01 03:51:51;;;;;;;4.35;3.90;;;16.30;43.20;;;;;;5014114;28;20360;-81
2023/12/01 03:54:19;;;;;;;4.50;4.10;;;16.30;43.10;;;;;;5013968;28;20303;-81
2023/12/01 03:56:46;;;;;;;4.50;4.07;;;16.30;43.10;;;;;;4997798;28;20292;-81
2023/12/01 03:59:13;;;;;;;4.72;4.32;;;16.30;43.00;;;;;;5013890;28;20572;-81
2023/12/01 04:01:40;;;;;;;5.18;4.68;;;16.40;43.10;;;;;;5016060;28;20205;-81
2023/12/01 04:04:10;;;;;;;4.40;4.00;;;16.40;42.90;;;;;;5017902;28;20220;-81
2023/12/01 04:06:41;;;;;;;4.80;4.40;;;16.30;42.90;;;;;;5018064;28;20197;-81
2023/12/01 04:09:09;;;;;;;4.15;3.75;;;16.30;42.90;;;;;;5017274;28;20627;-81
2023/12/01 04:11:38;;;;;;;4.72;4.32;;;16.40;42.90;;;;;;5001071;28;20225;-81
2023/12/01 04:14:05;;;;;;;5.18;4.78;;;16.30;43.00;;;;;;5017413;28;20278;-81
2023/12/01 04:16:33;;;;;;;5.30;4.80;;;16.40;43.10;;;;;;5017177;28;20204;-81
2023/12/01 04:19:00;;;;;;;4.95;4.45;;;16.30;43.00;;;;;;5017617;28;20288;-81
2023/12/01 04:21:29;;;;;;;4.72;4.32;;;16.30;43.00;;;;;;5018538;28;20243;-81
2023/12/01 04:23:56;;;;;;;4.90;4.50;;;16.30;43.10;;;;;;5016978;28;20223;-81
2023/12/01 04:26:24;;;;;;;5.05;4.40;;;16.30;43.20;;;;;;5017447;28;20207;-81
2023/12/01 04:28:51;;;;;;;4.82;4.43;;;16.20;43.10;;;;;;5016721;28;20596;-81
2023/12/01 04:31:19;;;;;;;4.57;4.18;;;16.30;43.10;;;;;;5016728;28;20311;-81
2023/12/01 04:33:46;;;;;;;4.65;4.25;;;16.20;43.00;;;;;;5017059;28;20311;-81
2023/12/01 04:36:13;;;;;;;4.53;4.13;;;16.20;43.10;;;;;;5016710;28;20623;-81
2023/12/01 04:38:42;;;;;;;4.97;4.57;;;16.20;43.20;;;;;;5000431;28;20295;-81
2023/12/01 04:41:10;;;;;;;4.40;4.00;;;16.20;43.20;;;;;;5016691;28;20197;-81
2023/12/01 04:43:39;;;;;;;4.50;4.10;;;16.20;43.30;;;;;;5016780;28;20227;-81
2023/12/01 04:46:07;;;;;;;4.22;3.92;;;16.10;43.80;;;;;;5016742;28;20568;-81
2023/12/01 04:48:34;;;;;;;4.70;4.30;;;16.10;43.20;;;;;;5017185;28;20622;-81
2023/12/01 04:51:01;;;;;;;4.93;4.53;;;16.20;43.20;;;;;;5017131;28;20360;-81
2023/12/01 04:53:28;;;;;;;4.40;4.00;;;16.20;43.20;;;;;;5016988;28;20717;-81
2023/12/01 04:55:56;;;;;;;4.95;4.30;;;16.20;43.10;;;;;;5017795;28;20299;-81
2023/12/01 04:58:24;;;;;;;4.93;4.45;;;16.30;43.20;;;;;;5018678;28;20197;-81
2023/12/01 05:00:51;;;;;;;4.70;4.30;;;16.30;43.00;;;;;;5017675;28;20216;-81
2023/12/01 05:03:18;;;;;;;4.88;4.40;;;16.30;43.00;;;;;;5000490;28;20216;-81
2023/12/01 05:05:45;;;;;;;4.88;4.32;;;16.30;43.00;;;;;;5001658;28;20292;-81
2023/12/01 05:08:12;;;;;;;4.75;4.35;;;16.30;43.10;;;;;;5018137;28;20216;-81
2023/12/01 05:10:44;;;;;;;4.72;4.35;;;16.30;43.00;;;;;;5017597;28;20291;-81
2023/12/01 05:13:14;;;;;;;5.82;4.60;;;16.20;43.10;;;;;;5016386;28;20225;-81
2023/12/01 05:15:41;;;;;;;5.15;4.75;;;16.30;43.20;;;;;;5017100;28;20243;-81
2023/12/01 05:18:10;;;;;;;4.78;4.38;;;16.20;43.20;;;;;;5016903;28;20205;-81
2023/12/01 05:20:37;;;;;;;4.80;4.40;;;16.20;43.10;;;;;;5017222;28;20196;-81
2023/12/01 05:23:05;;;;;;;4.80;4.40;;;16.20;43.20;;;;;;5015132;28;20303;-82
2023/12/01 05:25:33;;;;;;;5.65;4.70;;;16.30;43.20;;;;;;5015594;28;20212;-81
2023/12/01 05:28:01;;;;;;;5.15;4.32;;;16.30;43.30;;;;;;5015945;28;20200;-82
2023/12/01 05:30:30;;;;;;;4.30;3.90;;;16.20;43.00;;;;;;5015818;28;20208;-81
2023/12/01 05:32:58;;;;;;;4.60;4.20;;;16.20;43.10;;;;;;5016038;28;20247;-81
2023/12/01 05:35:25;;;;;;;4.25;3.85;;;16.30;43.20;;;;;;5016704;28;20255;-81
2023/12/01 05:37:53;;;;;;;4.80;4.40;;;16.30;43.30;;;;;;5015823;28;20214;-81
2023/12/01 05:40:21;;;;;;;4.68;4.28;;;16.20;43.20;;;;;;5016429;28;20569;-81
2023/12/01 05:42:49;;;;;;;4.63;4.22;;;16.20;43.20;;;;;;5015970;28;20220;-81
2023/12/01 05:45:16;;;;;;;4.15;3.85;;;16.20;43.10;;;;;;5016105;28;20224;-81
2023/12/01 05:47:45;;;;;;;4.50;4.10;;;16.20;43.10;;;;;;5015705;28;20197;-81
2023/12/01 05:50:13;;;;;;;4.50;4.20;;;16.20;43.20;;;;;;5016213;28;20200;-81
2023/12/01 05:52:41;;;;;;;4.22;3.92;;;16.20;43.20;;;;;;5015831;28;20232;-81
2023/12/01 05:55:14;;;;;;;4.75;4.25;;;16.20;43.20;;;;;;5015461;28;20263;-81
2023/12/01 05:57:43;;;;;;;4.40;4.00;;;16.20;43.20;;;;;;5014976;28;20200;-79
2023/12/01 06:00:13;;;;;;;4.55;4.15;;;16.20;43.20;;;;;;5016338;28;20231;-81
2023/12/01 06:02:40;;;;;;;4.60;4.18;;;16.20;43.20;;;;;;5015916;28;20220;-81
2023/12/01 06:05:11;;;;;;;4.68;4.28;;;16.20;43.10;;;;;;5015664;28;20288;-81
2023/12/01 06:07:38;;;;;;;4.40;4.00;;;16.20;43.10;;;;;;5015580;28;20196;-81
2023/12/01 06:10:07;;;;;;;4.90;4.50;;;16.20;43.10;;;;;;5015230;28;20232;-81
2023/12/01 06:12:34;;;;;;;5.47;4.97;;;16.20;43.20;;;;;;5015319;28;20252;-81
2023/12/01 06:15:01;;;;;;;4.25;3.95;;;16.20;43.20;;;;;;5015409;28;20202;-81
2023/12/01 06:17:28;;;;;;;4.80;4.40;;;16.20;43.20;;;;;;4998571;28;20196;-81
2023/12/01 06:19:55;;;;;;;4.45;4.15;;;16.20;43.20;;;;;;5016011;28;20287;-81
2023/12/01 06:22:24;;;;;;;4.35;3.95;;;16.20;43.10;;;;;;5014604;28;20201;-81
2023/12/01 06:24:51;;;;;;;4.68;4.28;;;16.20;43.10;;;;;;5014096;28;20201;-81
2023/12/01 06:27:18;;;;;;;3.85;3.55;;;16.20;43.20;;;;;;5014674;28;20200;-81
2023/12/01 06:29:45;;;;;;;4.60;4.20;;;16.20;43.00;;;;;;5014825;28;20242;-81
2023/12/01 06:32:13;;;;;;;4.40;4.00;;;16.20;43.10;;;;;;5016104;28;20274;-81
2023/12/01 06:34:41;;;;;;;4.10;3.80;;;16.20;43.00;;;;;;5016849;28;20201;-81
2023/12/01 06:37:09;;;;;;;4.85;4.20;;;16.20;43.00;;;;;;5015826;28;20563;-81
2023/12/01 06:39:37;;;;;;;4.55;4.10;;;16.30;43.20;;;;;;5014938;28;20235;-81
2023/12/01 06:42:05;;;;;;;4.20;3.90;;;16.20;43.00;;;;;;5015028;28;20342;-81
2023/12/01 06:44:34;;;;;;;4.00;3.70;;;16.30;43.00;;;;;;5015597;28;20225;-81
2023/12/01 06:47:02;;;;;;;4.45;4.05;;;16.30;42.80;;;;;;5016539;28;20209;-81
2023/12/01 06:49:29;;;;;;;4.70;4.30;;;16.30;43.00;;;;;;5018721;28;20200;-80
2023/12/01 06:51:58;;;;;;;4.28;3.97;;;16.30;42.90;;;;;;5027114;28;20223;-80
2023/12/01 06:54:27;;;;;;;4.22;3.92;;;16.30;43.00;;;;;;5026301;28;20220;-80
2023/12/01 06:56:56;;;;;;;4.28;3.92;;;16.30;42.80;;;;;;5022720;28;20211;-81
2023/12/01 06:59:23;;;;;;;4.38;4.00;;;16.20;42.90;;;;;;5005647;28;20196;-81
2023/12/01 07:01:51;;;;;;;4.47;4.10;;;16.30;42.90;;;;;;5021514;28;20208;-81
2023/12/01 07:04:19;;;;;;;4.80;4.40;;;16.30;43.00;;;;;;5021046;28;20304;-81
2023/12/01 07:06:47;;;;;;;4.35;4.00;;;16.20;43.10;;;;;;5018324;28;20205;-81
2023/12/01 07:09:17;;;;;;;4.78;4.45;;;16.20;43.20;;;;;;5013716;28;20220;-81
2023/12/01 07:11:46;;;;;;;4.35;3.95;;;16.20;43.10;;;;;;5014661;28;20209;-81
2023/12/01 07:14:14;;;;;;;4.00;3.70;;;16.20;43.00;;;;;;5014534;28;20240;-81
2023/12/01 07:16:42;;;;;;;4.30;3.90;;;16.20;43.00;;;;;;5013740;28;20589;-81
2023/12/01 07:19:10;;;;;;;4.90;4.40;;;16.10;42.90;;;;;;5013686;28;20224;-82
2023/12/01 07:21:37;;;;;;;4.25;3.95;;;16.20;43.00;;;;;;5013448;28;20247;-82
2023/12/01 07:24:07;;;;;;;4.78;4.38;;;16.20;43.00;;;;;;5013256;28;20615;-81
2023/12/01 07:26:35;;;;;;;4.10;3.80;;;16.20;42.90;;;;;;5013732;28;20251;-81
2023/12/01 07:29:04;;;;;;;4.75;4.35;;;16.20;42.90;;;;;;5020851;28;20209;-81
2023/12/01 07:31:34;;;;;;;4.38;4.00;;;16.20;42.90;;;;;;5023162;28;20244;-81
2023/12/01 07:34:01;;;;;;;4.80;4.40;;;16.20;42.80;;;;;;5022351;28;20327;-81
2023/12/01 07:36:29;;;;;;;4.40;4.00;;;16.20;43.10;;;;;;5025363;28;20205;-81
2023/12/01 07:38:56;;;;;;;4.28;3.97;;;16.20;43.10;;;;;;5024866;28;20193;-81
2023/12/01 07:41:23;;;;;;;4.00;3.70;;;16.20;43.10;;;;;;5022839;28;20200;-79
2023/12/01 07:43:52;;;;;;;4.43;4.03;;;16.20;43.20;;;;;;5018618;28;20221;-79
2023/12/01 07:46:21;;;;;;;3.95;3.65;;;16.20;43.00;;;;;;5016352;28;20192;-79
2023/12/01 07:48:49;;;;;;;4.13;3.83;;;16.20;43.00;;;;;;5017113;28;20295;-81
2023/12/01 07:51:17;;;;;;;4.10;3.80;;;16.20;42.90;;;;;;5019203;28;20200;-81
2023/12/01 07:53:45;;;;;;;4.13;3.83;;;16.30;43.00;;;;;;5020682;28;20217;-82
2023/12/01 07:56:12;;;;;;;4.60;4.20;;;16.20;43.00;;;;;;5019667;28;20251;-82
2023/12/01 07:58:40;;;;;;;4.05;3.75;;;16.20;43.00;;;;;;5017901;28;20207;-82
2023/12/01 08:01:10;;;;;;;4.38;4.03;;;16.20;42.90;;;;;;5018385;28;20226;-82
2023/12/01 08:03:40;;;;;;;3.65;3.40;;;16.30;43.10;;;;;;5016591;28;20248;-79
2023/12/01 08:06:09;;;;;;;4.13;3.72;;;16.30;43.10;;;;;;5016141;28;20599;-79
2023/12/01 08:08:36;;;;;;;3.88;3.58;;;16.20;43.00;;;;;;5016314;28;20208;-80
2023/12/01 08:11:04;;;;;;;3.83;3.53;;;16.20;42.80;;;;;;5015874;28;20196;-79
2023/12/01 08:13:31;;;;;;;3.85;3.55;;;16.20;43.00;;;;;;5015700;28;20224;-79
2023/12/01 08:15:59;;;;;;;4.10;3.80;;;16.30;42.90;;;;;;5015593;28;20227;-79
2023/12/01 08:18:26;;;;;;;3.63;3.33;;;16.20;43.00;;;;;;5015585;28;20208;-79
2023/12/01 08:20:53;;;;;;;4.03;3.72;;;16.30;42.80;;;;;;5015503;28;20217;-79
2023/12/01 08:23:21;;;;;;;4.70;4.40;;;16.20;42.90;;;;;;5015835;28;20216;-79
2023/12/01 08:25:51;;;;;;;4.32;4.03;;;16.30;42.90;;;;;;4999387;28;20201;-79
2023/12/01 08:28:18;;;;;;;4.07;3.78;;;16.30;43.60;;;;;;5015189;28;20201;-79
2023/12/01 08:30:45;;;;;;;4.03;3.72;;;16.30;43.00;;;;;;5015848;28;20315;-80
2023/12/01 08:33:13;;;;;;;4.40;4.10;;;16.30;42.90;;;;;;5016495;28;20655;-79
2023/12/01 08:35:40;;;;;;;4.70;4.18;;;16.20;42.80;;;;;;5017086;28;20197;-79
2023/12/01 08:38:09;;;;;;;4.35;4.05;;;16.20;42.90;;;;;;5017028;28;20197;-80
2023/12/01 08:40:38;;;;;;;4.30;4.00;;;16.30;42.80;;;;;;5016909;28;20193;-80
2023/12/01 08:43:06;;;;;;;4.70;4.30;;;16.30;42.90;;;;;;5016271;28;20216;-80
2023/12/01 08:45:34;;;;;;;4.25;3.95;;;16.30;42.80;;;;;;5016275;28;20197;-80
2023/12/01 08:48:01;;;;;;;4.00;3.70;;;16.30;42.80;;;;;;5015523;28;20201;-80
2023/12/01 08:50:28;;;;;;;4.32;4.03;;;16.30;42.90;;;;;;5015948;28;20200;-80
2023/12/01 08:52:55;;;;;;;4.40;4.10;;;16.20;42.80;;;;;;5015806;28;20243;-80
2023/12/01 08:55:21;;;;;;;4.28;3.97;;;16.30;42.80;;;;;;5016345;28;20253;-80
2023/12/01 08:57:50;;;;;;;3.85;3.55;;;16.30;42.80;;;;;;5015619;28;20203;-80
2023/12/01 09:00:20;;;;;;;3.85;3.55;;;16.30;42.80;;;;;;5015709;28;20284;-80
2023/12/01 09:02:48;;;;;;;3.97;3.67;;;16.30;42.80;;;;;;4999554;28;20228;-80
2023/12/01 09:05:17;;;;;;;3.97;3.67;;;16.30;42.80;;;;;;5015636;28;20196;-79
2023/12/01 09:07:46;;;;;;;4.22;3.92;;;16.30;42.80;;;;;;5000957;28;20197;-80
2023/12/01 09:10:15;;;;;;;4.15;3.85;;;16.30;43.00;;;;;;5015826;28;20561;-80
2023/12/01 09:12:42;;;;;;;3.72;3.50;;;16.30;42.90;;;;;;5014936;28;20706;-80
2023/12/01 09:15:11;;;;;;;4.03;3.72;;;16.30;42.80;;;;;;4999071;28;20201;-80
2023/12/01 09:17:38;;;;;;;3.95;3.60;;;16.30;42.80;;;;;;5015136;28;20291;-79
2023/12/01 09:20:08;;;;;;;4.22;3.85;;;16.30;42.90;;;;;;5014938;28;20727;-80
2023/12/01 09:22:36;;;;;;;4.00;3.70;;;16.30;42.90;;;;;;5015872;28;20213;-80
2023/12/01 09:25:03;;;;;;;4.10;3.80;;;16.30;42.80;;;;;;4998655;28;20660;-80
2023/12/01 09:27:30;;;;;;;4.50;4.15;;;16.40;42.90;;;;;;5015133;28;20259;-80
2023/12/01 09:29:57;;;;;;;4.63;4.25;;;16.40;42.90;;;;;;5015537;28;20259;-81
2023/12/01 09:32:26;;;;;;;3.63;3.33;;;16.40;42.90;;;;;;4998403;28;20228;-81
2023/12/01 09:34:53;;;;;;;3.95;3.65;;;16.40;42.90;;;;;;5015012;28;20578;-80
2023/12/01 09:37:20;;;;;;;3.90;3.60;;;16.40;42.90;;;;;;5015392;28;20196;-80
2023/12/01 09:39:46;;;;;;;4.47;4.07;;;16.40;42.90;;;;;;5014671;28;20243;-81
2023/12/01 09:42:13;;;;;;;5.28;4.78;;;16.40;42.90;;;;;;5014442;28;20189;-80
2023/12/01 09:44:40;;;;;;;4.93;4.53;;;16.40;42.90;;;;;;5014582;28;20207;-81
2023/12/01 09:47:07;;;;;;;4.78;4.32;;;16.40;43.50;;;;;;5015368;28;20199;-80
2023/12/01 09:49:36;;;;;;;4.22;3.85;;;16.40;42.90;;;;;;5015339;28;20548;-80
2023/12/01 09:52:03;;;;;;;4.25;3.95;;;16.30;42.80;;;;;;5017947;28;20232;-80
2023/12/01 09:54:30;;;;;;;4.80;4.40;;;16.40;42.80;;;;;;5017306;28;20251;-80
2023/12/01 09:56:58;;;;;;;4.97;4.45;;;16.40;42.90;;;;;;5016754;28;20220;-81
2023/12/01 09:59:25;;;;;;;4.30;3.90;;;16.40;42.80;;;;;;5015671;28;20247;-81
2023/12/01 10:01:53;;;;;;;4.28;3.90;;;16.40;42.80;;;;;;5016317;28;20200;-81
2023/12/01 10:04:20;;;;;;;3.97;3.67;;;16.40;42.90;;;;;;5001538;28;20700;-81
2023/12/01 10:06:48;;;;;;;4.30;4.00;;;16.40;42.90;;;;;;5017300;28;20205;-81
2023/12/01 10:09:26;;;;;;;4.10;3.80;;;16.40;42.90;;;;;;5018018;28;20310;-80
2023/12/01 10:12:05;;;;;;;4.15;3.83;;;16.40;42.90;;;;;;5017498;28;20200;-80
2023/12/01 10:14:33;;;;;;;4.05;3.75;;;16.40;43.00;;;;;;5015438;28;20212;-80
2023/12/01 10:17:02;;;;;;;4.90;4.50;;;16.40;42.90;;;;;;5016618;28;20204;-80
2023/12/01 10:19:33;;;;;;;4.88;4.47;;;16.40;42.90;;;;;;5018198;28;20192;-80
2023/12/01 10:22:02;;;;;;;4.55;4.15;;;16.40;42.90;;;;;;5017706;28;20267;-80
2023/12/01 10:24:30;;;;;;;4.15;3.85;;;16.50;42.90;;;;;;5018871;28;20219;-80
2023/12/01 10:26:58;;;;;;;4.38;4.07;;;16.50;43.00;;;;;;5019530;28;20259;-80
2023/12/01 10:29:28;;;;;;;4.03;3.72;;;16.40;42.90;;;;;;5018888;28;20220;-80
2023/12/01 10:31:57;;;;;;;4.68;4.32;;;16.50;42.90;;;;;;5022379;28;20224;-79
2023/12/01 10:34:24;;;;;;;4.25;3.85;;;16.50;42.90;;;;;;5025770;28;20235;-79
2023/12/01 10:36:53;;;;;;;3.95;3.65;;;16.50;42.80;;;;;;5024805;28;20228;-79
2023/12/01 10:39:24;;;;;;;4.18;3.88;;;16.50;42.80;;;;;;5022735;28;20271;-80
2023/12/01 10:41:51;;;;;;;3.92;3.63;;;16.50;42.90;;;;;;5021882;28;20542;-80
2023/12/01 10:44:19;;;;;;;4.45;4.05;;;16.50;42.90;;;;;;5021498;28;20284;-80
2023/12/01 10:46:47;;;;;;;4.38;3.97;;;16.50;42.80;;;;;;5020318;28;20319;-80
2023/12/01 10:49:15;;;;;;;4.20;3.90;;;16.50;42.90;;;;;;5004290;28;20608;-80
2023/12/01 10:51:42;;;;;;;3.83;3.53;;;16.50;42.80;;;;;;5020804;28;20205;-80
2023/12/01 10:54:10;;;;;;;4.15;3.85;;;16.50;42.80;;;;;;5020248;28;20247;-80
2023/12/01 10:56:52;;;;;;;4.03;3.72;;;16.50;42.80;;;;;;5019681;28;20564;-80
2023/12/01 10:59:19;;;;;;;4.70;4.40;;;16.50;42.90;;;;;;5018744;28;20193;-80
2023/12/01 11:01:49;;;;;;;3.90;3.60;;;16.50;42.90;;;;;;5016351;28;20222;-81
2023/12/01 11:04:21;;;;;;;4.10;3.78;;;16.50;42.80;;;;;;5016635;28;20216;-81
2023/12/01 11:06:53;;;;;;;4.63;4.18;;;16.50;42.90;;;;;;5015479;28;20197;-81
2023/12/01 11:09:24;;;;;;;4.15;3.85;;;16.50;42.70;;;;;;5015534;28;20636;-81
2023/12/01 11:11:57;;;;;;;4.00;3.70;;;16.50;42.90;;;;;;5019373;28;20208;-81
2023/12/01 11:14:25;;;;;;;4.20;3.90;;;16.50;42.90;;;;;;5018327;28;20216;-80
2023/12/01 11:16:53;;;;;;;4.63;4.32;;;16.50;42.90;;;;;;5018451;28;20200;-81
2023/12/01 11:19:20;;;;;;;4.38;3.97;;;16.50;42.90;;;;;;5004228;28;20207;-81
2023/12/01 11:21:51;;;;;;;4.47;4.18;;;16.50;42.90;;;;;;5019335;28;20203;-81
2023/12/01 11:24:25;;;;;;;4.57;4.13;;;16.40;42.80;;;;;;4986709;28;20221;-81
2023/12/01 11:26:54;;;;;;;3.92;3.63;;;16.50;42.90;;;;;;5018062;28;20290;-81
2023/12/01 11:29:28;;;;;;;4.32;4.03;;;16.50;42.80;;;;;;5018594;28;20208;-81
2023/12/01 11:31:57;;;;;;;4.05;3.75;;;16.50;42.80;;;;;;5008960;28;20203;-81
2023/12/01 11:34:25;;;;;;;4.10;3.80;;;16.50;42.90;;;;;;5021483;28;20231;-81
2023/12/01 11:36:52;;;;;;;4.40;4.10;;;16.50;43.00;;;;;;5020344;28;20204;-81
2023/12/01 11:39:23;;;;;;;4.07;3.78;;;16.50;42.90;;;;;;5022400;28;20205;-81
2023/12/01 11:42:14;;;;;;;4.40;4.10;;;16.50;42.90;;;;;;5019841;28;20196;-81
2023/12/01 11:44:41;;;;;;;4.20;3.90;;;16.50;42.90;;;;;;5014272;28;20231;-81
2023/12/01 11:47:12;;;;;;;3.95;3.63;;;16.50;42.90;;;;;;5002698;28;20204;-81
2023/12/01 11:49:40;;;;;;;4.75;4.35;;;16.50;42.90;;;;;;5020513;28;20284;-81
2023/12/01 11:52:10;;;;;;;3.72;3.42;;;16.50;42.90;;;;;;5023544;28;20220;-81
2023/12/01 11:54:37;;;;;;;4.38;4.05;;;16.50;43.00;;;;;;5022547;28;20213;-81
2023/12/01 11:57:06;;;;;;;4.25;3.92;;;16.50;42.80;;;;;;5018072;28;20205;-81
2023/12/01 11:59:36;;;;;;;4.35;3.95;;;16.50;42.80;;;;;;5018576;28;20201;-81
2023/12/01 12:02:04;;;;;;;4.50;4.15;;;16.50;43.00;;;;;;5019231;28;20200;-81
2023/12/01 12:04:32;;;;;;;4.15;3.85;;;16.50;42.80;;;;;;5018961;28;20303;-81
2023/12/01 12:07:00;;;;;;;3.90;3.60;;;16.50;42.80;;;;;;5017989;28;20259;-81
2023/12/01 12:09:30;;;;;;;4.20;3.90;;;16.50;43.00;;;;;;5017921;28;20201;-81
2023/12/01 12:11:58;;;;;;;4.57;4.28;;;16.50;42.90;;;;;;5016858;28;20195;-81
2023/12/01 12:14:25;;;;;;;4.20;3.90;;;16.50;43.00;;;;;;5018884;28;20233;-81
2023/12/01 12:16:53;;;;;;;4.85;4.45;;;16.40;42.90;;;;;;5018665;28;20219;-81
2023/12/01 12:19:21;;;;;;;4.35;4.00;;;16.40;42.90;;;;;;5018339;28;20207;-82
2023/12/01 12:21:48;;;;;;;4.25;3.85;;;16.40;42.90;;;;;;5018983;28;20229;-81
2023/12/01 12:24:15;;;;;;;5.13;4.68;;;16.40;42.90;;;;;;5018946;28;20255;-81
2023/12/01 12:26:43;;;;;;;5.30;4.90;;;16.40;42.90;;;;;;5017681;28;20620;-82
2023/12/01 12:29:11;;;;;;;4.50;4.20;;;16.50;43.00;;;;;;5016935;28;20285;-81
2023/12/01 12:31:40;;;;;;;5.32;4.93;;;16.50;43.00;;;;;;5060312;23;20236;-84
2023/12/01 12:34:09;;;;;;;5.25;4.75;;;16.40;43.50;;;;;;5017046;28;20225;-84
2023/12/01 12:36:37;;;;;;;4.55;4.25;;;16.40;42.90;;;;;;5017258;28;20201;-84
2023/12/01 12:39:05;;;;;;;4.30;4.00;;;16.30;42.80;;;;;;5020396;28;20193;-84
2023/12/01 12:41:33;;;;;;;4.18;3.67;;;16.40;42.90;;;;;;5025483;28;20196;-84
2023/12/01 12:44:01;;;;;;;4.80;4.40;;;16.40;43.10;;;;;;5025241;28;20227;-84
2023/12/01 12:46:29;;;;;;;5.20;4.80;;;16.40;43.00;;;;;;5024647;28;20200;-84
2023/12/01 12:48:57;;;;;;;4.63;4.22;;;16.40;43.00;;;;;;5016892;28;20205;-84
2023/12/01 12:51:26;;;;;;;4.40;4.10;;;16.30;43.10;;;;;;5016619;28;20655;-84
2023/12/01 12:53:54;;;;;;;4.10;3.80;;;16.40;43.10;;;;;;5016424;28;20227;-84